createdAt,value
2018-05-26T00:00:12.804Z,31.13
2018-05-26T00:02:41.308Z,30.80
2018-05-26T00:05:09.637Z,32.73
2018-05-26T00:07:37.951Z,32.20
2018-05-26T00:12:40.968Z,31.27
2018-05-26T00:15:09.278Z,31.90
2018-05-26T00:17:37.716Z,34.47
2018-05-26T00:20:06.050Z,34.50
2018-05-26T00:22:34.131Z,35.17
2018-05-26T00:25:02.454Z,35.97
2018-05-26T00:27:30.768Z,35.27
2018-05-26T00:29:59.843Z,36.27
2018-05-26T00:32:28.176Z,34.57
2018-05-26T00:34:56.268Z,35.90
2018-05-26T00:37:24.582Z,37.00
2018-05-26T00:39:52.903Z,37.57
2018-05-26T00:42:21.231Z,35.33
2018-05-26T00:44:49.586Z,36.10
2018-05-26T00:47:17.905Z,37.77
2018-05-26T00:49:46.222Z,38.37
2018-05-26T00:52:15.316Z,40.07
2018-05-26T00:57:17.770Z,41.87
2018-05-26T00:59:46.100Z,41.27
2018-05-26T01:02:15.184Z,41.03
2018-05-26T01:04:43.722Z,42.00
2018-05-26T01:07:12.058Z,41.30
2018-05-26T01:09:40.369Z,42.73
2018-05-26T01:12:08.679Z,43.03
2018-05-26T01:14:37.010Z,44.17
2018-05-26T01:17:06.121Z,44.43
2018-05-26T01:19:34.441Z,43.80
2018-05-26T01:22:02.776Z,43.60
2018-05-26T01:24:31.090Z,47.00
2018-05-26T01:26:59.431Z,42.37
2018-05-26T01:29:27.452Z,45.50
2018-05-26T01:31:55.895Z,46.00
2018-05-26T01:34:24.222Z,46.33
2018-05-26T01:36:52.550Z,46.77
2018-05-26T01:39:20.864Z,45.47
2018-05-26T01:41:49.933Z,46.97
2018-05-26T01:44:18.247Z,46.43
2018-05-26T01:46:47.315Z,47.80
2018-05-26T01:49:15.643Z,49.40
2018-05-26T01:51:44.003Z,49.83
2018-05-26T01:54:13.062Z,47.33
2018-05-26T01:56:41.386Z,46.83
2018-05-26T01:59:10.496Z,48.87
2018-05-26T02:01:38.796Z,49.40
2018-05-26T02:04:07.120Z,48.93
2018-05-26T02:06:36.219Z,46.67
2018-05-26T02:09:03.733Z,46.80
2018-05-26T02:11:32.055Z,48.77
2018-05-26T02:14:00.384Z,48.40
2018-05-26T02:16:32.631Z,48.17
2018-05-26T02:21:34.534Z,48.50
2018-05-26T02:24:02.849Z,48.77
2018-05-26T02:26:34.369Z,48.37
2018-05-26T02:29:03.456Z,47.77
2018-05-26T02:31:31.780Z,48.63
2018-05-26T02:34:00.880Z,46.27
2018-05-26T02:36:29.196Z,48.50
2018-05-26T02:38:58.287Z,46.93
2018-05-26T02:41:29.836Z,46.77
2018-05-26T02:43:58.173Z,46.20
2018-05-26T02:46:27.278Z,46.77
2018-05-26T02:48:55.588Z,45.87
2018-05-26T02:51:23.918Z,46.33
2018-05-26T02:53:52.239Z,44.70
2018-05-26T02:56:20.548Z,44.17
2018-05-26T02:58:48.874Z,44.20
2018-05-26T03:01:17.177Z,45.17
2018-05-26T03:03:45.318Z,45.47
2018-05-26T03:06:19.374Z,45.63
2018-05-26T03:08:56.307Z,44.67
2018-05-26T03:11:29.940Z,46.77
2018-05-26T03:14:04.354Z,45.40
2018-05-26T03:16:35.620Z,46.53
2018-05-26T03:19:03.947Z,46.80
2018-05-26T03:21:32.262Z,47.53
2018-05-26T03:24:00.605Z,48.97
2018-05-26T03:26:28.971Z,48.30
2018-05-26T03:28:57.430Z,46.50
2018-05-26T03:31:25.747Z,47.27
2018-05-26T03:34:06.356Z,47.90
2018-05-26T03:36:34.668Z,45.53
2018-05-26T03:39:02.750Z,45.23
2018-05-26T03:41:31.083Z,47.63
2018-05-26T03:43:59.397Z,49.20
2018-05-26T03:46:27.720Z,47.87
2018-05-26T03:48:56.016Z,44.77
2018-05-26T03:51:24.374Z,43.23
2018-05-26T03:53:52.697Z,45.40
2018-05-26T03:56:32.285Z,43.23
2018-05-26T03:59:11.756Z,39.10
2018-05-26T04:01:40.092Z,38.07
2018-05-26T04:04:08.396Z,35.20
2018-05-26T04:06:36.702Z,35.20
2018-05-26T04:09:04.486Z,33.20
2018-05-26T04:11:32.807Z,33.70
2018-05-26T04:14:01.107Z,33.17
2018-05-26T04:16:29.418Z,31.53
2018-05-26T04:18:57.740Z,31.87
2018-05-26T04:21:26.050Z,30.87
2018-05-26T04:23:54.137Z,31.30
2018-05-26T04:26:22.454Z,29.43
2018-05-26T04:28:50.775Z,27.70
2018-05-26T04:31:19.081Z,25.37
2018-05-26T04:36:21.937Z,23.53
2018-05-26T04:38:50.258Z,21.77
2018-05-26T04:41:18.600Z,22.17
2018-05-26T04:43:46.904Z,20.13
2018-05-26T04:46:15.994Z,21.10
2018-05-26T04:48:45.093Z,21.87
2018-05-26T04:51:13.427Z,21.20
2018-05-26T04:53:41.733Z,20.03
2018-05-26T04:56:10.047Z,19.90
2018-05-26T04:58:39.158Z,19.77
2018-05-26T05:01:07.471Z,21.00
2018-05-26T05:03:36.574Z,19.40
2018-05-26T05:06:04.886Z,19.63
2018-05-26T05:11:07.174Z,17.17
2018-05-26T05:13:35.500Z,17.40
2018-05-26T05:16:03.814Z,17.60
2018-05-26T05:18:32.125Z,16.00
2018-05-26T05:21:00.453Z,15.90
2018-05-26T05:23:28.758Z,16.63
2018-05-26T05:26:00.236Z,16.30
2018-05-26T05:28:28.547Z,14.90
2018-05-26T05:30:57.663Z,16.10
2018-05-26T05:33:25.982Z,14.17
2018-05-26T05:35:57.974Z,15.13
2018-05-26T05:38:26.294Z,15.50
2018-05-26T05:40:57.931Z,14.80
2018-05-26T05:43:26.863Z,14.38
2018-05-26T05:45:55.790Z,14.60
2018-05-26T05:48:24.672Z,16.62
2018-05-26T05:50:54.344Z,14.70
2018-05-26T05:53:23.060Z,14.70
2018-05-26T05:55:52.724Z,14.25
2018-05-26T05:58:21.628Z,14.55
2018-05-26T06:00:50.515Z,15.50
2018-05-26T06:03:19.414Z,14.38
2018-05-26T06:05:48.292Z,14.77
2018-05-26T06:08:19.020Z,15.18
2018-05-26T06:10:47.900Z,14.55
2018-05-26T06:13:16.918Z,14.82
2018-05-26T06:15:45.802Z,14.60
2018-05-26T06:18:14.671Z,15.27
2018-05-26T06:20:43.579Z,15.80
2018-05-26T06:23:18.444Z,16.05
2018-05-26T06:25:56.472Z,15.75
2018-05-26T06:28:25.365Z,15.13
2018-05-26T06:30:55.067Z,17.08
2018-05-26T06:33:23.962Z,14.48
2018-05-26T06:35:52.903Z,16.33
2018-05-26T06:38:21.986Z,17.87
2018-05-26T06:40:50.871Z,16.30
2018-05-26T06:43:19.979Z,18.67
2018-05-26T06:45:48.874Z,16.52
2018-05-26T06:48:17.187Z,15.83
2018-05-26T06:50:46.103Z,15.57
2018-05-26T06:53:15.195Z,17.00
2018-05-26T06:55:44.101Z,15.68
2018-05-26T06:58:13.017Z,16.80
2018-05-26T07:00:41.936Z,17.62
2018-05-26T07:03:10.837Z,15.85
2018-05-26T07:05:39.770Z,16.33
2018-05-26T07:08:11.665Z,16.73
2018-05-26T07:10:40.567Z,17.15
2018-05-26T07:13:09.487Z,16.70
2018-05-26T07:15:39.153Z,17.60
2018-05-26T07:18:17.039Z,16.80
2018-05-26T07:20:45.916Z,15.65
2018-05-26T07:23:14.821Z,16.87
2018-05-26T07:25:43.728Z,15.88
2018-05-26T07:28:12.642Z,15.93
2018-05-26T07:30:42.348Z,17.50
2018-05-26T07:33:11.247Z,16.73
2018-05-26T07:35:43.160Z,17.92
2018-05-26T07:38:11.557Z,17.90
2018-05-26T07:40:40.468Z,17.45
2018-05-26T07:43:09.415Z,16.83
2018-05-26T07:45:38.330Z,17.12
2018-05-26T07:48:07.244Z,16.98
2018-05-26T07:50:35.822Z,17.05
2018-05-26T07:53:05.494Z,17.52
2018-05-26T07:55:34.402Z,18.00
2018-05-26T07:58:03.292Z,17.25
2018-05-26T08:00:32.172Z,18.35
2018-05-26T08:03:01.087Z,18.23
2018-05-26T08:05:30.207Z,16.87
2018-05-26T08:08:11.234Z,17.17
2018-05-26T08:10:40.173Z,18.87
2018-05-26T08:13:09.846Z,16.70
2018-05-26T08:15:38.782Z,17.42
2018-05-26T08:18:07.694Z,16.65
2018-05-26T08:20:36.625Z,16.87
2018-05-26T08:23:05.539Z,16.75
2018-05-26T08:25:34.434Z,17.62
2018-05-26T08:28:03.365Z,16.15
2018-05-26T08:30:33.040Z,16.08
2018-05-26T08:33:01.948Z,16.23
2018-05-26T08:35:30.844Z,16.83
2018-05-26T08:37:59.791Z,17.40
2018-05-26T08:40:28.683Z,19.58
2018-05-26T08:42:57.603Z,16.67
2018-05-26T08:45:26.511Z,16.42
2018-05-26T08:47:55.396Z,14.85
2018-05-26T08:50:24.303Z,15.35
2018-05-26T08:52:53.217Z,15.90
2018-05-26T08:55:22.111Z,14.85
2018-05-26T08:57:51.026Z,15.95
2018-05-26T09:00:20.422Z,15.70
2018-05-26T09:02:49.318Z,15.70
2018-05-26T09:05:18.222Z,15.27
2018-05-26T09:07:47.193Z,14.32
2018-05-26T09:10:16.084Z,16.05
2018-05-26T09:12:44.985Z,14.38
2018-05-26T09:15:13.880Z,13.20
2018-05-26T09:17:42.768Z,13.18
2018-05-26T09:20:11.662Z,13.00
2018-05-26T09:22:40.540Z,13.05
2018-05-26T09:25:09.466Z,11.40
2018-05-26T09:27:38.519Z,12.75
2018-05-26T09:30:07.415Z,13.00
2018-05-26T09:32:36.316Z,12.90
2018-05-26T09:35:05.189Z,12.48
2018-05-26T09:37:34.836Z,12.68
2018-05-26T09:40:03.515Z,12.70
2018-05-26T09:42:32.580Z,12.88
2018-05-26T09:45:01.462Z,13.30
2018-05-26T09:47:30.366Z,12.52
2018-05-26T09:49:59.252Z,13.15
2018-05-26T09:52:28.176Z,12.60
2018-05-26T09:54:57.109Z,13.77
2018-05-26T09:57:26.011Z,13.35
2018-05-26T09:59:55.224Z,13.48
2018-05-26T10:02:24.136Z,13.20
2018-05-26T10:04:53.016Z,13.55
2018-05-26T10:07:21.902Z,12.75
2018-05-26T10:09:50.783Z,14.18
2018-05-26T10:12:19.675Z,14.00
2018-05-26T10:14:48.563Z,14.45
2018-05-26T10:17:17.439Z,13.85
2018-05-26T10:19:46.326Z,13.57
2018-05-26T10:22:15.208Z,12.40
2018-05-26T10:24:44.101Z,11.95
2018-05-26T10:27:13.008Z,13.88
2018-05-26T10:29:41.916Z,14.68
2018-05-26T10:32:10.804Z,18.60
2018-05-26T10:34:40.661Z,13.73
2018-05-26T10:37:10.331Z,13.48
2018-05-26T10:39:39.989Z,14.73
2018-05-26T10:42:08.893Z,15.18
2018-05-26T10:44:37.787Z,13.27
2018-05-26T10:47:06.694Z,13.52
2018-05-26T10:49:35.746Z,14.95
2018-05-26T10:52:04.314Z,14.15
2018-05-26T10:54:33.964Z,15.07
2018-05-26T10:57:02.873Z,13.90
2018-05-26T10:59:31.748Z,15.13
2018-05-26T11:02:00.642Z,13.43
2018-05-26T11:04:29.600Z,13.25
2018-05-26T11:06:58.649Z,13.50
2018-05-26T11:09:27.526Z,15.27
2018-05-26T11:11:56.607Z,14.15
2018-05-26T11:14:25.512Z,14.77
2018-05-26T11:16:54.084Z,14.10
2018-05-26T11:19:22.643Z,14.38
2018-05-26T11:21:51.693Z,16.33
2018-05-26T11:24:20.619Z,14.02
2018-05-26T11:26:49.715Z,14.23
2018-05-26T11:29:19.408Z,15.05
2018-05-26T11:31:48.311Z,15.95
2018-05-26T11:34:17.200Z,15.05
2018-05-26T11:36:45.746Z,13.95
2018-05-26T11:39:14.665Z,15.30
2018-05-26T11:41:43.584Z,15.77
2018-05-26T11:44:12.477Z,14.77
2018-05-26T11:46:41.370Z,14.80
2018-05-26T11:49:10.279Z,13.62
2018-05-26T11:51:39.186Z,14.50
2018-05-26T11:54:08.173Z,14.80
2018-05-26T11:56:37.064Z,13.70
2018-05-26T11:59:05.939Z,13.27
2018-05-26T12:01:38.855Z,14.20
2018-05-26T12:04:08.519Z,13.80
2018-05-26T12:06:37.414Z,12.00
2018-05-26T12:09:05.975Z,11.48
2018-05-26T12:11:34.888Z,11.88
2018-05-26T12:14:03.789Z,15.50
2018-05-26T12:16:32.673Z,14.63
2018-05-26T12:19:01.601Z,14.40
2018-05-26T12:21:30.485Z,14.63
2018-05-26T12:24:00.183Z,13.95
2018-05-26T12:26:29.819Z,15.07
2018-05-26T12:28:58.711Z,12.68
2018-05-26T12:31:27.616Z,12.80
2018-05-26T12:33:56.519Z,12.73
2018-05-26T12:36:26.335Z,14.05
2018-05-26T12:38:55.255Z,13.95
2018-05-26T12:41:24.157Z,13.80
2018-05-26T12:43:53.245Z,15.52
2018-05-26T12:46:22.137Z,13.48
2018-05-26T12:48:50.690Z,14.35
2018-05-26T12:51:20.445Z,13.05
2018-05-26T12:53:49.339Z,13.85
2018-05-26T12:56:19.219Z,14.65
2018-05-26T12:58:48.195Z,11.80
2018-05-26T13:01:17.097Z,13.35
2018-05-26T13:03:45.712Z,11.10
2018-05-26T13:06:14.636Z,11.88
2018-05-26T13:08:43.733Z,12.40
2018-05-26T13:11:12.628Z,13.48
2018-05-26T13:16:35.072Z,13.10
2018-05-26T13:19:03.941Z,13.23
2018-05-26T13:21:32.859Z,13.43
2018-05-26T13:24:01.747Z,12.90
2018-05-26T13:26:30.747Z,13.80
2018-05-26T13:28:59.633Z,11.25
2018-05-26T13:31:28.250Z,11.00
2018-05-26T13:33:56.921Z,11.10
2018-05-26T13:36:25.520Z,11.90
2018-05-26T13:38:54.124Z,11.23
2018-05-26T13:41:22.720Z,10.50
2018-05-26T13:43:51.320Z,11.37
2018-05-26T13:46:19.893Z,11.80
2018-05-26T13:48:48.771Z,10.20
2018-05-26T13:51:17.704Z,10.88
2018-05-26T13:53:46.496Z,9.87
2018-05-26T13:56:15.333Z,9.40
2018-05-26T13:58:44.081Z,9.77
2018-05-26T14:01:12.664Z,9.93
2018-05-26T14:03:42.010Z,9.93
2018-05-26T14:06:10.603Z,8.80
2018-05-26T14:08:39.239Z,10.67
2018-05-26T14:11:07.584Z,11.57
2018-05-26T14:13:36.162Z,8.83
2018-05-26T14:16:04.752Z,11.77
2018-05-26T14:18:33.341Z,10.40
2018-05-26T14:21:01.952Z,7.93
2018-05-26T14:23:31.324Z,9.10
2018-05-26T14:25:59.911Z,10.57
2018-05-26T14:28:28.503Z,8.47
2018-05-26T14:30:56.751Z,8.60
2018-05-26T14:33:25.524Z,9.23
2018-05-26T14:35:54.135Z,8.17
2018-05-26T14:38:22.485Z,8.97
2018-05-26T14:40:51.052Z,7.60
2018-05-26T14:43:20.275Z,7.60
2018-05-26T14:45:49.072Z,9.40
2018-05-26T14:48:17.840Z,8.40
2018-05-26T14:50:46.419Z,7.63
2018-05-26T14:53:15.127Z,6.53
2018-05-26T14:55:43.696Z,7.50
2018-05-26T14:58:12.288Z,8.23
2018-05-26T15:00:41.099Z,5.60
2018-05-26T15:03:09.682Z,6.67
2018-05-26T15:05:38.281Z,8.77
2018-05-26T15:08:06.888Z,7.57
2018-05-26T15:10:35.643Z,6.83
2018-05-26T15:13:04.047Z,8.00
2018-05-26T15:15:32.783Z,6.53
2018-05-26T15:18:01.393Z,7.30
2018-05-26T15:20:29.996Z,6.60
2018-05-26T15:22:58.585Z,10.80
2018-05-26T15:25:27.189Z,6.07
2018-05-26T15:27:55.794Z,5.60
2018-05-26T15:30:24.621Z,7.27
2018-05-26T15:32:53.212Z,4.43
2018-05-26T15:35:21.793Z,5.10
2018-05-26T15:37:51.349Z,6.30
2018-05-26T15:40:19.944Z,4.97
2018-05-26T15:42:48.535Z,5.30
2018-05-26T15:45:17.112Z,7.40
2018-05-26T15:47:45.704Z,7.17
2018-05-26T15:50:14.297Z,6.47
2018-05-26T15:52:42.894Z,6.73
2018-05-26T15:55:11.503Z,5.00
2018-05-26T15:57:40.094Z,4.93
2018-05-26T16:00:08.686Z,5.10
2018-05-26T16:02:37.251Z,6.97
2018-05-26T16:05:05.503Z,7.67
2018-05-26T16:07:35.591Z,5.03
2018-05-26T16:10:04.191Z,4.30
2018-05-26T16:12:32.780Z,4.20
2018-05-26T16:15:01.370Z,6.27
2018-05-26T16:17:29.969Z,5.03
2018-05-26T16:19:58.557Z,5.83
2018-05-26T16:22:27.157Z,4.50
2018-05-26T16:24:55.511Z,6.17
2018-05-26T16:27:24.134Z,5.67
2018-05-26T16:29:52.740Z,7.50
2018-05-26T16:32:21.322Z,5.87
2018-05-26T16:34:49.909Z,5.77
2018-05-26T16:37:18.500Z,4.97
2018-05-26T16:39:47.087Z,5.73
2018-05-26T16:42:15.654Z,6.03
2018-05-26T16:44:44.260Z,6.17
2018-05-26T16:47:12.862Z,5.57
2018-05-26T16:49:41.426Z,4.87
2018-05-26T16:52:10.059Z,5.73
2018-05-26T16:54:39.434Z,5.97
2018-05-26T16:57:08.046Z,4.20
2018-05-26T16:59:36.654Z,5.07
2018-05-26T17:02:04.677Z,4.47
2018-05-26T17:04:33.279Z,6.37
2018-05-26T17:07:01.879Z,4.83
2018-05-26T17:09:30.506Z,5.40
2018-05-26T17:11:59.270Z,5.63
2018-05-26T17:14:27.864Z,4.90
2018-05-26T17:16:56.460Z,8.23
2018-05-26T17:19:25.036Z,4.27
2018-05-26T17:21:53.623Z,5.40
2018-05-26T17:24:22.215Z,6.80
2018-05-26T17:26:50.843Z,6.20
2018-05-26T17:29:19.481Z,5.20
2018-05-26T17:31:48.880Z,6.33
2018-05-26T17:34:17.523Z,5.77
2018-05-26T17:36:46.820Z,5.93
2018-05-26T17:39:16.724Z,4.60
2018-05-26T17:41:45.368Z,4.40
2018-05-26T17:44:14.016Z,4.70
2018-05-26T17:46:42.605Z,5.73
2018-05-26T17:49:11.224Z,5.90
2018-05-26T17:51:39.808Z,4.87
2018-05-26T17:54:08.409Z,6.27
2018-05-26T17:56:37.313Z,4.60
2018-05-26T17:59:06.201Z,5.80
2018-05-26T18:01:35.128Z,5.03
2018-05-26T18:04:04.540Z,4.90
2018-05-26T18:06:33.474Z,5.95
2018-05-26T18:09:02.369Z,5.57
2018-05-26T18:11:31.248Z,6.82
2018-05-26T18:14:00.144Z,5.15
2018-05-26T18:16:29.031Z,5.30
2018-05-26T18:18:57.923Z,5.70
2018-05-26T18:21:26.525Z,5.40
2018-05-26T18:23:55.403Z,5.12
2018-05-26T18:26:24.311Z,6.05
2018-05-26T18:28:53.693Z,8.55
2018-05-26T18:31:22.606Z,5.80
2018-05-26T18:33:52.287Z,5.68
2018-05-26T18:36:21.178Z,6.37
2018-05-26T18:38:50.085Z,5.40
2018-05-26T18:41:18.959Z,9.52
2018-05-26T18:43:47.885Z,7.93
2018-05-26T18:46:17.572Z,9.50
2018-05-26T18:48:47.659Z,5.70
2018-05-26T18:51:16.724Z,7.28
2018-05-26T18:53:45.635Z,6.68
2018-05-26T18:56:15.295Z,8.98
2018-05-26T18:58:44.178Z,6.05
2018-05-26T19:01:13.088Z,6.55
2018-05-26T19:03:45.003Z,5.53
2018-05-26T19:06:16.525Z,5.83
2018-05-26T19:08:45.408Z,5.20
2018-05-26T19:11:14.333Z,6.85
2018-05-26T19:13:43.226Z,5.43
2018-05-26T19:16:12.132Z,5.40
2018-05-26T19:18:41.153Z,5.75
2018-05-26T19:21:10.056Z,7.68
2018-05-26T19:23:38.931Z,9.25
2018-05-26T19:26:07.819Z,9.07
2018-05-26T19:31:11.539Z,6.80
2018-05-26T19:33:40.440Z,7.12
2018-05-26T19:36:09.321Z,5.97
2018-05-26T19:38:38.181Z,7.95
2018-05-26T19:41:07.068Z,6.32
2018-05-26T19:43:35.968Z,6.22
2018-05-26T19:46:04.846Z,6.03
2018-05-26T19:48:33.792Z,8.50
2018-05-26T19:51:02.789Z,6.00
2018-05-26T19:53:31.652Z,5.75
2018-05-26T19:56:00.554Z,7.28
2018-05-26T19:58:29.459Z,6.37
2018-05-26T20:00:58.358Z,6.47
2018-05-26T20:03:28.368Z,5.47
2018-05-26T20:05:57.253Z,7.65
2018-05-26T20:08:26.147Z,6.78
2018-05-26T20:10:55.129Z,7.15
2018-05-26T20:13:24.082Z,7.68
2018-05-26T20:15:53.032Z,8.68
2018-05-26T20:18:22.985Z,6.72
2018-05-26T20:20:53.745Z,5.70
2018-05-26T20:23:22.319Z,7.97
2018-05-26T20:25:50.906Z,7.83
2018-05-26T20:34:07.619Z,6.40
2018-05-26T20:36:36.524Z,5.97
2018-05-26T20:39:04.846Z,6.25
2018-05-26T20:41:33.419Z,7.63
2018-05-26T20:44:02.323Z,6.30
2018-05-26T20:46:31.222Z,6.45
2018-05-26T20:48:59.786Z,5.65
2018-05-26T20:51:28.692Z,7.37
2018-05-26T20:53:57.590Z,6.85
2018-05-26T20:56:26.464Z,6.22
2018-05-26T20:58:55.573Z,4.72
2018-05-26T21:01:26.832Z,6.93
2018-05-26T21:03:55.161Z,9.73
2018-05-26T21:06:24.068Z,5.03
2018-05-26T21:08:52.930Z,9.85
2018-05-26T21:11:22.071Z,4.95
2018-05-26T21:13:50.979Z,5.40
2018-05-26T21:16:20.668Z,7.22
2018-05-26T21:18:49.538Z,6.45
2018-05-26T21:21:18.465Z,10.35
2018-05-26T21:23:47.393Z,7.03
2018-05-26T21:26:16.303Z,6.43
2018-05-26T21:28:44.613Z,5.87
2018-05-26T21:31:13.518Z,10.55
2018-05-26T21:33:42.460Z,6.37
2018-05-26T21:36:12.107Z,5.43
2018-05-26T21:38:40.640Z,5.00
2018-05-26T21:41:09.531Z,8.10
2018-05-26T21:43:38.406Z,6.10
2018-05-26T21:46:08.104Z,4.65
2018-05-26T21:48:37.003Z,6.68
2018-05-26T21:51:05.888Z,7.43
2018-05-26T21:53:34.775Z,7.40
2018-05-26T21:56:03.637Z,6.10
2018-05-26T21:58:32.546Z,5.35
2018-05-26T22:01:01.425Z,5.72
2018-05-26T22:03:30.309Z,5.32
2018-05-26T22:05:59.239Z,5.00
2018-05-26T22:08:28.318Z,7.10
2018-05-26T22:10:57.196Z,5.28
2018-05-26T22:13:26.132Z,9.25
2018-05-26T22:15:54.995Z,5.93
2018-05-26T22:18:23.884Z,7.62
2018-05-26T22:20:52.990Z,5.68
2018-05-26T22:23:21.676Z,6.45
2018-05-26T22:25:51.321Z,7.25
2018-05-26T22:28:20.384Z,7.20
2018-05-26T22:30:49.447Z,5.00
2018-05-26T22:33:18.329Z,4.90
2018-05-26T22:35:47.205Z,5.05
2018-05-26T22:38:16.066Z,5.50
2018-05-26T22:40:44.981Z,6.75
2018-05-26T22:43:13.848Z,8.65
2018-05-26T22:45:42.721Z,5.37
2018-05-26T22:48:11.705Z,4.95
2018-05-26T22:50:40.592Z,5.68
2018-05-26T22:53:09.469Z,6.12
2018-05-26T22:55:38.370Z,6.70
2018-05-26T22:58:07.000Z,5.47
2018-05-26T23:00:35.894Z,4.80
2018-05-26T23:03:04.448Z,4.55
2018-05-26T23:05:34.111Z,4.62
2018-05-26T23:08:02.989Z,6.05
2018-05-26T23:10:31.302Z,4.03
2018-05-26T23:13:00.185Z,4.93
2018-05-26T23:15:29.061Z,5.40
2018-05-26T23:17:57.366Z,6.10
2018-05-26T23:20:26.252Z,5.22
2018-05-26T23:22:55.130Z,6.00
2018-05-26T23:25:23.453Z,7.60
2018-05-26T23:27:52.325Z,6.47
2018-05-26T23:30:21.191Z,5.47
2018-05-26T23:32:50.053Z,6.45
2018-05-26T23:35:19.002Z,6.80
2018-05-26T23:37:47.895Z,6.07
2018-05-26T23:40:16.779Z,5.80
2018-05-26T23:42:45.843Z,4.87
2018-05-26T23:45:14.706Z,5.22
2018-05-26T23:47:43.586Z,4.72
2018-05-26T23:50:12.449Z,5.18
2018-05-26T23:52:40.799Z,7.37
2018-05-26T23:55:09.702Z,5.55
2018-05-26T23:57:38.577Z,6.43
